Time;durP1;ratioP1;P1;durP2;ratioP2;P2;SDS_P1;SDS_P2;PMS_P1;PMS_P2;Temp;Humidity;BMP_temperature;BMP_pressure;BME280_temperature;BME280_humidity;BME280_pressure;Samples;Min_cycle;Max_cycle;Signal;HPM_P1;HPM_P2
2023/09/12 00:01:46;;;;;;;0.10;0.10;;;;;;;20.66;100.00;96255.09;5107162;27;20047;-79
2023/09/12 00:04:32;;;;;;;0.10;0.00;;;;;;;20.80;100.00;96263.13;5106798;27;20075;-80
2023/09/12 00:07:18;;;;;;;0.00;0.00;;;;;;;20.91;100.00;96266.31;5105871;27;20050;-80
2023/09/12 00:10:04;;;;;;;0.00;0.00;;;;;;;20.74;100.00;96265.19;5107081;27;20035;-80
2023/09/12 00:12:50;;;;;;;0.10;0.10;;;;;;;20.82;100.00;96258.97;5105724;27;20039;-80
2023/09/12 00:15:36;;;;;;;0.00;0.00;;;;;;;20.99;100.00;96265.53;5096108;27;20734;-80
2023/09/12 00:18:22;;;;;;;0.00;0.00;;;;;;;21.08;100.00;96255.44;5105274;27;20148;-80
2023/09/12 00:21:07;;;;;;;0.00;0.00;;;;;;;20.93;100.00;96259.44;5106927;27;20542;-80
2023/09/12 00:23:53;;;;;;;0.00;0.00;;;;;;;20.99;100.00;96247.28;5109955;27;20598;-79
2023/09/12 00:26:39;;;;;;;0.00;0.00;;;;;;;21.08;100.00;96239.13;5102544;27;20051;-79
2023/09/12 00:29:25;;;;;;;0.00;0.00;;;;;;;21.11;100.00;96241.22;5107608;27;20046;-79
2023/09/12 00:32:11;;;;;;;0.10;0.10;;;;;;;21.08;100.00;96233.69;5093898;27;20462;-78
2023/09/12 00:34:56;;;;;;;0.05;0.05;;;;;;;20.82;100.00;96233.69;5106839;27;20051;-78
2023/09/12 00:37:42;;;;;;;0.10;0.10;;;;;;;20.69;100.00;96235.44;5105546;27;20043;-78
2023/09/12 00:40:31;;;;;;;0.00;0.00;;;;;;;20.55;100.00;96237.50;5106504;27;20072;-78
2023/09/12 00:43:16;;;;;;;0.00;0.00;;;;;;;20.56;100.00;96229.03;5090370;27;20134;-78
2023/09/12 00:46:04;;;;;;;0.00;0.00;;;;;;;20.43;100.00;96234.56;5108666;27;20042;-78
2023/09/12 00:48:52;;;;;;;0.00;0.00;;;;;;;20.63;100.00;96227.78;5087027;27;20078;-78
2023/09/12 00:51:39;;;;;;;0.00;0.00;;;;;;;20.75;100.00;96242.31;5102376;27;20046;-78
2023/09/12 00:54:25;;;;;;;0.00;0.00;;;;;;;20.79;100.00;96226.19;5083061;27;20454;-78
2023/09/12 00:57:11;;;;;;;0.00;0.00;;;;;;;20.58;100.00;96226.78;5086842;27;20788;-77
2023/09/12 00:59:57;;;;;;;0.00;0.00;;;;;;;20.75;100.00;96226.00;5095181;27;20096;-77
2023/09/12 01:02:46;;;;;;;0.00;0.00;;;;;;;20.74;100.00;96223.63;5090998;27;20074;-77
2023/09/12 01:05:32;;;;;;;0.00;0.00;;;;;;;20.45;100.00;96210.63;5074752;27;20122;-77
2023/09/12 01:08:17;;;;;;;0.00;0.00;;;;;;;20.42;100.00;96209.31;5083332;27;20198;-78
2023/09/12 01:11:04;;;;;;;0.00;0.00;;;;;;;20.50;100.00;96214.00;5092091;27;20236;-78
2023/09/12 01:13:50;;;;;;;0.00;0.00;;;;;;;20.50;100.00;96214.00;5107248;27;20054;-79
2023/09/12 01:16:36;;;;;;;0.00;0.00;;;;;;;20.52;100.00;96216.38;5107509;27;20047;-79
2023/09/12 01:19:22;;;;;;;0.00;0.00;;;;;;;20.44;100.00;96217.19;5092533;27;20074;-79
2023/09/12 01:22:31;;;;;;;0.00;0.00;;;;;;;20.45;100.00;96211.41;5106163;27;20553;-79
2023/09/12 01:25:55;;;;;;;0.00;0.00;;;;;;;20.47;100.00;96209.22;5093066;27;20738;-77
2023/09/12 01:28:44;;;;;;;0.00;0.00;;;;;;;20.37;100.00;96203.22;5085827;28;20042;-78
2023/09/12 01:31:31;;;;;;;0.00;0.00;;;;;;;20.41;100.00;96204.22;5106191;27;20313;-77
2023/09/12 01:34:16;;;;;;;0.00;0.00;;;;;;;20.42;100.00;96200.38;5092920;27;20052;-79
2023/09/12 01:37:02;;;;;;;0.00;0.00;;;;;;;20.51;100.00;96201.19;5091833;28;20524;-79
2023/09/12 01:39:48;;;;;;;0.00;0.00;;;;;;;20.48;100.00;96212.72;5095737;28;20046;-79
2023/09/12 01:42:37;;;;;;;0.00;0.00;;;;;;;20.55;100.00;96210.34;5093082;28;21509;-79
2023/09/12 01:45:23;;;;;;;0.00;0.00;;;;;;;20.38;100.00;96215.69;5107367;28;20043;-79
2023/09/12 01:48:11;;;;;;;0.00;0.00;;;;;;;20.27;100.00;96202.41;5092261;28;20040;-79
2023/09/12 01:50:58;;;;;;;0.00;0.00;;;;;;;20.35;100.00;96205.47;5092862;28;20071;-79
2023/09/12 01:53:45;;;;;;;0.00;0.00;;;;;;;20.39;100.00;96212.69;5105633;28;20124;-79
2023/09/12 01:56:32;;;;;;;0.00;0.00;;;;;;;20.43;100.00;96212.84;5107081;28;20046;-79
2023/09/12 01:59:19;;;;;;;0.00;0.00;;;;;;;20.35;100.00;96210.91;5084655;28;20047;-79
2023/09/12 02:02:04;;;;;;;0.00;0.00;;;;;;;20.40;100.00;96208.03;5100073;28;20080;-79
2023/09/12 02:05:11;;;;;;;0.00;0.00;;;;;;;20.51;100.00;96206.63;5107579;28;20219;-79
2023/09/12 02:07:57;;;;;;;0.00;0.00;;;;;;;20.51;100.00;96207.44;5085369;28;20085;-79
2023/09/12 02:10:43;;;;;;;0.00;0.00;;;;;;;20.46;100.00;96207.56;5085927;28;20051;-79
2023/09/12 02:13:28;;;;;;;0.00;0.00;;;;;;;20.21;100.00;96205.59;5090416;28;20034;-79
2023/09/12 02:16:14;;;;;;;0.00;0.00;;;;;;;20.29;100.00;96219.19;5106432;28;20050;-79
2023/09/12 02:19:00;;;;;;;0.08;0.08;;;;;;;20.19;100.00;96210.53;5108956;27;20146;-79
2023/09/12 02:21:46;;;;;;;0.00;0.00;;;;;;;20.28;100.00;96201.28;5109349;27;20039;-79
2023/09/12 02:24:34;;;;;;;0.00;0.00;;;;;;;20.19;100.00;96208.63;5109542;27;20122;-79
2023/09/12 02:27:20;;;;;;;0.00;0.00;;;;;;;20.17;100.00;96205.44;5107461;27;20045;-80
2023/09/12 02:30:06;;;;;;;0.00;0.00;;;;;;;20.21;100.00;96200.94;5095731;27;20185;-80
2023/09/12 02:32:52;;;;;;;0.10;0.10;;;;;;;20.31;100.00;96200.69;5082495;27;20166;-79
2023/09/12 02:35:38;;;;;;;0.00;0.00;;;;;;;20.38;100.00;96191.22;5109737;27;20088;-80
2023/09/12 02:38:24;;;;;;;0.00;0.00;;;;;;;20.24;100.00;96197.63;5109423;27;20051;-79
2023/09/12 02:41:10;;;;;;;0.10;0.10;;;;;;;20.28;100.00;96201.28;5110611;27;20075;-80
2023/09/12 02:43:55;;;;;;;0.00;0.00;;;;;;;20.13;100.00;96204.44;5094904;27;20824;-80
2023/09/12 02:46:41;;;;;;;0.00;0.00;;;;;;;20.10;100.00;96196.94;5110013;27;20489;-80
2023/09/12 02:49:27;;;;;;;0.05;0.05;;;;;;;20.04;100.00;96190.06;5097336;27;20045;-80
2023/09/12 02:52:13;;;;;;;0.00;0.00;;;;;;;20.12;100.00;96185.75;5116587;27;20050;-80
2023/09/12 02:54:59;;;;;;;0.00;0.00;;;;;;;20.02;100.00;96187.66;5114902;27;20048;-79
2023/09/12 02:57:45;;;;;;;0.00;0.00;;;;;;;19.87;100.00;96200.88;5107854;27;20091;-79
2023/09/12 03:00:30;;;;;;;0.00;0.00;;;;;;;19.97;100.00;96189.72;5110054;27;20039;-80
2023/09/12 03:03:17;;;;;;;0.00;0.00;;;;;;;20.07;100.00;96188.63;5109023;27;20047;-80
2023/09/12 03:06:03;;;;;;;0.10;0.10;;;;;;;20.16;100.00;96189.47;5093808;27;20649;-80
2023/09/12 03:08:50;;;;;;;0.00;0.00;;;;;;;20.14;100.00;96189.75;5108928;27;20473;-80
2023/09/12 03:11:36;;;;;;;0.00;0.00;;;;;;;20.07;100.00;96189.41;5110198;27;20092;-80
2023/09/12 03:14:22;;;;;;;0.00;0.00;;;;;;;20.04;100.00;96195.47;5107572;27;20172;-79
2023/09/12 03:17:07;;;;;;;0.00;0.00;;;;;;;20.09;100.00;96191.84;5103547;27;20039;-80
2023/09/12 03:19:53;;;;;;;0.00;0.00;;;;;;;20.00;100.00;96186.38;5087047;27;20056;-80
2023/09/12 03:22:39;;;;;;;0.00;0.00;;;;;;;19.92;100.00;96187.13;5095019;27;20057;-80
2023/09/12 03:25:26;;;;;;;0.10;0.00;;;;;;;19.87;100.00;96192.72;5094206;27;20541;-80
2023/09/12 03:28:12;;;;;;;0.00;0.00;;;;;;;19.81;100.00;96196.69;5106530;27;20039;-80
2023/09/12 03:31:13;;;;;;;0.00;0.00;;;;;;;19.62;100.00;96205.88;5095278;27;20043;-79
2023/09/12 03:33:59;;;;;;;0.00;0.00;;;;;;;19.40;100.00;96198.53;5089289;27;20043;-80
2023/09/12 03:36:47;;;;;;;0.00;0.00;;;;;;;19.43;100.00;96205.25;5097261;27;20062;-81
2023/09/12 03:39:33;;;;;;;0.10;0.10;;;;;;;19.46;100.00;96212.78;5087415;27;20044;-80
2023/09/12 03:42:19;;;;;;;0.00;0.00;;;;;;;19.57;100.00;96207.91;5107410;27;20145;-80
2023/09/12 03:45:06;;;;;;;0.10;0.10;;;;;;;19.41;100.00;96205.56;5111286;27;20120;-80
2023/09/12 03:47:51;;;;;;;0.10;0.10;;;;;;;19.31;100.00;96208.53;5093160;27;20393;-79
2023/09/12 03:50:37;;;;;;;0.10;0.00;;;;;;;19.23;100.00;96203.06;5096076;27;20119;-80
2023/09/12 03:53:23;;;;;;;0.00;0.00;;;;;;;19.09;100.00;96206.66;5084503;28;20106;-80
2023/09/12 03:56:12;;;;;;;0.00;0.00;;;;;;;18.98;100.00;96197.13;5105077;27;20051;-79
2023/09/12 03:58:59;;;;;;;0.05;0.05;;;;;;;18.86;100.00;96191.50;5083036;27;20493;-79
2023/09/12 04:01:46;;;;;;;0.00;0.00;;;;;;;18.90;100.00;96197.88;5088840;27;20130;-79
2023/09/12 04:04:32;;;;;;;0.10;0.10;;;;;;;18.97;100.00;96187.41;5107743;27;20069;-79
2023/09/12 04:07:18;;;;;;;0.00;0.00;;;;;;;19.04;100.00;96182.34;5102852;27;20512;-79
2023/09/12 04:10:04;;;;;;;0.00;0.00;;;;;;;18.97;100.00;96176.56;5090029;27;20035;-79
2023/09/12 04:12:50;;;;;;;0.00;0.00;;;;;;;18.97;100.00;96179.28;5109229;27;20625;-79
2023/09/12 04:15:36;;;;;;;0.08;0.08;;;;;;;18.99;100.00;96177.06;5110836;27;20050;-79
2023/09/12 04:18:22;;;;;;;0.00;0.00;;;;;;;19.07;100.00;96175.53;5092085;27;20634;-79
2023/09/12 04:21:07;;;;;;;0.00;0.00;;;;;;;19.09;100.00;96179.53;5109616;27;22069;-79
2023/09/12 04:23:53;;;;;;;0.00;0.00;;;;;;;19.11;100.00;96176.50;5110042;27;20027;-79
2023/09/12 04:26:39;;;;;;;0.00;0.00;;;;;;;19.04;100.00;96176.94;5089420;27;20038;-79
2023/09/12 04:29:25;;;;;;;0.00;0.00;;;;;;;18.93;100.00;96181.81;5094438;27;20237;-80
2023/09/12 04:32:11;;;;;;;0.05;0.00;;;;;;;18.79;100.00;96167.50;5093508;27;20401;-80
2023/09/12 04:34:58;;;;;;;0.00;0.00;;;;;;;18.61;100.00;96168.47;5093827;27;20154;-78
2023/09/12 04:37:44;;;;;;;0.00;0.00;;;;;;;18.68;100.00;96162.63;5108473;27;20047;-78
2023/09/12 04:40:30;;;;;;;0.08;0.08;;;;;;;18.72;100.00;96158.22;5093570;27;20039;-78
2023/09/12 04:43:15;;;;;;;0.00;0.00;;;;;;;18.76;100.00;96161.91;5107639;27;20521;-77
2023/09/12 04:46:01;;;;;;;0.00;0.00;;;;;;;18.71;100.00;96160.13;5110657;27;20122;-77
2023/09/12 04:48:48;;;;;;;0.00;0.00;;;;;;;18.56;100.00;96166.66;5087804;27;20802;-78
2023/09/12 04:51:34;;;;;;;0.00;0.00;;;;;;;18.58;100.00;96171.78;5088690;27;20480;-78
2023/09/12 04:54:20;;;;;;;0.00;0.00;;;;;;;18.47;100.00;96176.63;5079401;27;20076;-78
2023/09/12 04:57:07;;;;;;;0.00;0.00;;;;;;;18.44;100.00;96169.09;5094390;27;20050;-78
2023/09/12 04:59:53;;;;;;;0.00;0.00;;;;;;;18.43;100.00;96172.91;5092444;27;20035;-79
2023/09/12 05:02:39;;;;;;;0.00;0.00;;;;;;;18.42;100.00;96184.88;5093688;27;20089;-79
2023/09/12 05:05:25;;;;;;;0.00;0.00;;;;;;;18.27;100.00;96177.06;5095351;27;20153;-79
2023/09/12 05:08:11;;;;;;;0.00;0.00;;;;;;;18.29;100.00;96181.09;5108400;27;20082;-79
2023/09/12 05:10:57;;;;;;;0.05;0.00;;;;;;;18.16;100.00;96178.41;5085405;27;20124;-79
2023/09/12 05:13:43;;;;;;;0.00;0.00;;;;;;;18.15;100.00;96174.09;5080126;27;20050;-79
2023/09/12 05:16:32;;;;;;;0.00;0.00;;;;;;;18.17;100.00;96178.09;5100768;27;20158;-79
2023/09/12 05:19:18;;;;;;;0.00;0.00;;;;;;;18.04;100.00;96187.84;5093404;27;20529;-79
2023/09/12 05:22:03;;;;;;;0.00;0.00;;;;;;;18.07;100.00;96179.13;5110237;27;20043;-79
2023/09/12 05:24:50;;;;;;;0.00;0.00;;;;;;;17.92;100.00;96184.84;5096284;27;20042;-79
2023/09/12 05:27:35;;;;;;;0.00;0.00;;;;;;;17.96;100.00;96185.84;5096163;27;20710;-79
2023/09/12 05:30:22;;;;;;;0.00;0.00;;;;;;;17.74;100.00;96193.84;5101988;27;20039;-80
2023/09/12 05:33:08;;;;;;;0.10;0.10;;;;;;;17.83;100.00;96194.78;5106377;27;20181;-79
2023/09/12 05:35:54;;;;;;;0.00;0.00;;;;;;;17.86;100.00;96186.03;5093888;28;20035;-79
2023/09/12 05:38:39;;;;;;;0.10;0.10;;;;;;;17.89;100.00;96174.59;5108128;27;20053;-79
2023/09/12 05:41:28;;;;;;;0.00;0.00;;;;;;;17.86;100.00;96161.69;5094434;28;20893;-79
2023/09/12 05:44:17;;;;;;;0.00;0.00;;;;;;;17.92;100.00;96168.59;5093884;28;20034;-79
2023/09/12 05:47:03;;;;;;;0.10;0.10;;;;;;;18.07;100.00;96178.31;5108441;27;20096;-79
2023/09/12 05:49:50;;;;;;;0.00;0.00;;;;;;;18.23;100.00;96167.97;5096533;28;20122;-79
2023/09/12 05:52:36;;;;;;;0.10;0.10;;;;;;;18.30;100.00;96166.44;5108031;27;20146;-79
2023/09/12 05:55:22;;;;;;;0.10;0.10;;;;;;;18.49;100.00;96165.50;5092334;27;20082;-80
2023/09/12 05:58:08;;;;;;;0.00;0.00;;;;;;;18.61;100.00;96163.84;5107725;27;20505;-80
2023/09/12 06:00:55;;;;;;;0.10;0.10;;;;;;;18.54;100.00;96171.59;5085799;27;20039;-79
2023/09/12 06:03:40;;;;;;;0.10;0.10;;;;;;;18.44;100.00;96162.88;5094959;27;20513;-77
2023/09/12 06:06:27;;;;;;;0.00;0.00;;;;;;;18.58;100.00;96164.44;5112708;27;20054;-78
2023/09/12 06:09:13;;;;;;;0.00;0.00;;;;;;;18.76;100.00;96164.63;5110440;27;20046;-78
2023/09/12 06:11:59;;;;;;;0.03;0.03;;;;;;;18.99;100.00;96168.94;5106836;27;20047;-78
2023/09/12 06:14:45;;;;;;;0.00;0.00;;;;;;;19.20;100.00;96167.31;5112167;27;20066;-78
2023/09/12 06:17:31;;;;;;;0.00;0.00;;;;;;;19.36;100.00;96169.63;5112240;27;20047;-77
2023/09/12 06:20:19;;;;;;;0.00;0.00;;;;;;;19.44;100.00;96171.56;5110849;27;20050;-78
2023/09/12 06:23:05;;;;;;;0.00;0.00;;;;;;;19.49;100.00;96179.59;5098998;27;20035;-77
2023/09/12 06:25:51;;;;;;;0.10;0.10;;;;;;;19.57;100.00;96183.50;5112830;27;20080;-78
2023/09/12 06:28:37;;;;;;;0.10;0.10;;;;;;;19.54;100.00;96182.19;5107491;27;20055;-78
2023/09/12 06:31:22;;;;;;;0.00;0.00;;;;;;;19.52;100.00;96176.25;5109405;27;20042;-78
2023/09/12 06:34:09;;;;;;;0.00;0.00;;;;;;;19.59;100.00;96181.25;5112123;27;20039;-78
2023/09/12 06:36:55;;;;;;;0.00;0.00;;;;;;;19.67;100.00;96181.28;5113180;27;20039;-79
2023/09/12 06:39:41;;;;;;;0.10;0.10;;;;;;;19.67;100.00;96183.22;5111783;27;20058;-80
2023/09/12 06:42:26;;;;;;;0.03;0.03;;;;;;;19.67;100.00;96183.22;5108725;27;21011;-79
2023/09/12 06:45:12;;;;;;;0.10;0.10;;;;;;;19.57;100.00;96195.16;5111104;27;20604;-78
2023/09/12 06:47:58;;;;;;;0.10;0.10;;;;;;;19.49;100.00;96188.53;5108434;27;20089;-78
2023/09/12 06:50:44;;;;;;;0.05;0.05;;;;;;;19.50;100.00;96197.47;5111857;27;20696;-79
2023/09/12 06:53:30;;;;;;;0.00;0.00;;;;;;;19.49;100.00;96193.16;5111342;27;20047;-78
2023/09/12 06:56:15;;;;;;;0.00;0.00;;;;;;;19.47;100.00;96201.63;5110388;27;20065;-78
2023/09/12 06:59:02;;;;;;;0.03;0.03;;;;;;;19.54;100.00;96206.59;5109638;27;20719;-79
2023/09/12 07:01:48;;;;;;;0.05;0.05;;;;;;;19.61;100.00;96195.31;5108705;27;20055;-78
2023/09/12 07:04:34;;;;;;;0.00;0.00;;;;;;;19.69;100.00;96211.66;5109779;27;20039;-78
2023/09/12 07:07:20;;;;;;;0.10;0.10;;;;;;;19.65;100.00;96212.59;5108918;27;20146;-78
2023/09/12 07:10:06;;;;;;;0.00;0.00;;;;;;;19.79;100.00;96209.78;5111666;27;20043;-78
2023/09/12 07:12:53;;;;;;;0.08;0.08;;;;;;;19.93;100.00;96222.13;5109808;27;20031;-78
2023/09/12 07:15:39;;;;;;;0.10;0.10;;;;;;;19.95;100.00;96214.47;5110494;27;20047;-78
2023/09/12 07:18:25;;;;;;;0.03;0.03;;;;;;;19.90;100.00;96220.03;5109960;27;20398;-78
2023/09/12 07:21:12;;;;;;;0.10;0.10;;;;;;;20.00;100.00;96213.53;5077243;27;20051;-79
2023/09/12 07:23:58;;;;;;;0.00;0.00;;;;;;;20.03;100.00;96204.75;5107171;27;20067;-79
2023/09/12 07:26:46;;;;;;;0.00;0.00;;;;;;;19.89;100.00;96198.63;5107649;27;20134;-79
2023/09/12 07:29:32;;;;;;;0.10;0.10;;;;;;;19.89;100.00;96193.19;5109873;27;20460;-79
2023/09/12 07:32:18;;;;;;;0.08;0.08;;;;;;;19.95;100.00;96191.94;5107080;27;20031;-79
2023/09/12 07:35:04;;;;;;;0.00;0.00;;;;;;;20.08;100.00;96187.50;5110554;27;20875;-79
2023/09/12 07:37:50;;;;;;;0.00;0.00;;;;;;;20.29;100.00;96186.59;5107411;27;20482;-79
2023/09/12 07:40:36;;;;;;;0.05;0.05;;;;;;;20.55;100.00;96178.53;5096380;27;20097;-79
2023/09/12 07:43:22;;;;;;;0.05;0.05;;;;;;;20.73;100.00;96176.59;5110237;27;20821;-79
2023/09/12 07:46:08;;;;;;;0.00;0.00;;;;;;;20.92;100.00;96186.34;5108278;27;20435;-79
2023/09/12 07:48:54;;;;;;;0.10;0.10;;;;;;;20.98;100.00;96191.28;5109438;27;20070;-79
2023/09/12 07:51:40;;;;;;;0.00;0.00;;;;;;;21.05;100.00;96191.63;5094091;27;20289;-79
2023/09/12 07:54:26;;;;;;;0.00;0.00;;;;;;;21.04;100.00;96200.91;5103089;27;20035;-79
2023/09/12 07:57:11;;;;;;;0.08;0.08;;;;;;;21.05;100.00;96204.41;5103761;27;20572;-79
2023/09/12 07:59:57;;;;;;;0.00;0.00;;;;;;;21.10;100.00;96205.06;5108396;27;20135;-80
2023/09/12 08:02:43;;;;;;;0.10;0.10;;;;;;;21.17;100.00;96195.59;5106420;27;20057;-80
2023/09/12 08:05:29;;;;;;;0.00;0.00;;;;;;;21.33;100.00;96208.41;5106957;27;21166;-80
2023/09/12 08:08:15;;;;;;;0.10;0.10;;;;;;;21.43;100.00;96207.25;5102639;27;20483;-80
2023/09/12 08:11:01;;;;;;;0.00;0.00;;;;;;;21.40;100.00;96219.59;5106475;27;20574;-80
2023/09/12 08:13:49;;;;;;;0.10;0.10;;;;;;;21.45;100.00;96215.91;5087037;27;20151;-80
2023/09/12 08:16:35;;;;;;;0.08;0.08;;;;;;;21.53;100.00;96219.72;5106784;27;20135;-80
2023/09/12 08:19:21;;;;;;;0.10;0.10;;;;;;;21.65;100.00;96219.88;5103298;27;20501;-79
2023/09/12 08:22:08;;;;;;;0.00;0.00;;;;;;;21.72;100.00;96233.78;5101478;27;20151;-80
2023/09/12 08:24:54;;;;;;;0.10;0.10;;;;;;;21.74;100.00;96228.00;5107818;27;20047;-80
2023/09/12 08:27:40;;;;;;;0.10;0.10;;;;;;;21.78;100.00;96234.38;5102976;27;20126;-80
2023/09/12 08:30:29;;;;;;;0.10;0.10;;;;;;;21.87;100.00;96232.44;5104999;27;20040;-79
2023/09/12 08:33:15;;;;;;;0.10;0.10;;;;;;;21.95;100.00;96224.25;5098138;27;20172;-80
2023/09/12 08:36:01;;;;;;;0.10;0.10;;;;;;;22.07;100.00;96228.19;5108928;27;20079;-81
2023/09/12 08:38:47;;;;;;;0.03;0.03;;;;;;;22.09;100.00;96234.13;5102421;27;20035;-81
2023/09/12 08:41:33;;;;;;;0.00;0.00;;;;;;;22.24;100.00;96236.31;5107410;27;20042;-81
2023/09/12 08:44:20;;;;;;;0.10;0.10;;;;;;;22.44;100.00;96223.84;5101763;27;20118;-81
2023/09/12 08:47:11;;;;;;;0.00;0.00;;;;;;;22.50;100.00;96226.06;5102146;27;20055;-81
2023/09/12 08:49:58;;;;;;;0.10;0.10;;;;;;;22.60;100.00;96229.53;5107547;27;20783;-81
2023/09/12 08:52:45;;;;;;;0.05;0.05;;;;;;;22.72;100.00;96237.78;5101358;27;20159;-78
2023/09/12 08:55:38;;;;;;;0.10;0.10;;;;;;;22.68;100.00;96229.47;5106115;27;20236;-78
2023/09/12 08:58:25;;;;;;;0.10;0.10;;;;;;;22.79;100.00;96224.41;5100348;27;20583;-78
2023/09/12 09:01:17;;;;;;;0.08;0.08;;;;;;;22.99;100.00;96233.75;5107103;27;20629;-78
2023/09/12 09:04:04;;;;;;;0.00;0.00;;;;;;;23.10;100.00;96239.59;5101978;27;20050;-78
2023/09/12 09:06:50;;;;;;;0.10;0.10;;;;;;;23.22;100.00;96236.94;5106215;27;20043;-78
2023/09/12 09:09:36;;;;;;;0.00;0.00;;;;;;;23.29;100.00;96239.94;5105914;27;20039;-78
2023/09/12 09:12:22;;;;;;;0.10;0.10;;;;;;;23.45;100.00;96235.44;5102411;27;20044;-78
2023/09/12 09:15:23;;;;;;;0.10;0.10;;;;;;;23.49;100.00;96230.88;5104997;27;20038;-80
2023/09/12 09:18:11;;;;;;;0.00;0.00;;;;;;;23.43;100.00;96229.53;5100291;27;20114;-80
2023/09/12 09:20:57;;;;;;;0.10;0.10;;;;;;;23.87;100.00;96229.88;5105635;27;20051;-79
2023/09/12 09:23:47;;;;;;;0.05;0.05;;;;;;;24.30;100.00;96228.53;5102808;27;20220;-80
2023/09/12 09:26:43;;;;;;;0.00;0.00;;;;;;;24.63;100.00;96239.38;5105449;27;20126;-80
2023/09/12 09:29:31;;;;;;;0.10;0.10;;;;;;;25.02;100.00;96244.06;5089488;27;20540;-81
2023/09/12 09:32:21;;;;;;;0.08;0.08;;;;;;;25.23;100.00;96241.19;5101406;27;20134;-80
2023/09/12 09:35:09;;;;;;;0.00;0.00;;;;;;;25.28;100.00;96238.19;5107539;27;20070;-80
2023/09/12 09:37:55;;;;;;;0.00;0.00;;;;;;;25.43;100.00;96238.59;5102903;27;20051;-81
2023/09/12 09:40:41;;;;;;;0.00;0.00;;;;;;;25.49;100.00;96239.94;5109406;28;20051;-81
2023/09/12 09:43:27;;;;;;;0.00;0.00;;;;;;;25.96;100.00;96239.22;5101314;28;20039;-81
2023/09/12 09:46:16;;;;;;;0.00;0.00;;;;;;;25.80;100.00;96229.06;5107163;28;20039;-81
2023/09/12 09:49:02;;;;;;;0.03;0.03;;;;;;;26.24;100.00;96239.16;5101387;28;20098;-81
2023/09/12 09:51:48;;;;;;;0.00;0.00;;;;;;;26.65;100.00;96246.03;5084991;28;20131;-81
2023/09/12 09:54:34;;;;;;;0.00;0.00;;;;;;;26.67;100.00;96244.50;5106799;28;20125;-81
2023/09/12 09:57:20;;;;;;;0.00;0.00;;;;;;;26.72;100.00;96245.41;5104317;28;20071;-81
2023/09/12 10:00:08;;;;;;;0.00;0.00;;;;;;;26.53;100.00;96235.16;5105367;28;20046;-81
2023/09/12 10:02:55;;;;;;;0.00;0.00;;;;;;;26.30;100.00;96238.53;5103605;28;21010;-81
2023/09/12 10:05:43;;;;;;;0.00;0.00;;;;;;;26.27;100.00;96235.69;5107352;28;20229;-81
2023/09/12 10:08:29;;;;;;;0.00;0.00;;;;;;;26.53;100.00;96230.47;5086394;28;20042;-81
2023/09/12 10:11:16;;;;;;;0.10;0.10;;;;;;;26.88;100.00;96235.19;5104934;28;20039;-81
2023/09/12 10:14:06;;;;;;;0.10;0.10;;;;;;;26.93;100.00;96234.91;5103242;28;20040;-81
2023/09/12 10:16:59;;;;;;;0.10;0.10;;;;;;;27.03;100.00;96237.06;5106145;28;20049;-81
2023/09/12 10:19:58;;;;;;;0.10;0.10;;;;;;;26.83;100.00;96241.72;5104092;28;20051;-81
2023/09/12 10:22:55;;;;;;;0.10;0.10;;;;;;;27.34;100.00;96229.88;5075490;28;20044;-81
2023/09/12 10:25:43;;;;;;;0.10;0.10;;;;;;;27.82;100.00;96227.66;5106765;28;20537;-81
2023/09/12 10:28:30;;;;;;;0.10;0.10;;;;;;;28.31;100.00;96223.03;5099729;28;20035;-81
2023/09/12 10:31:17;;;;;;;0.10;0.10;;;;;;;29.15;100.00;96218.34;5106203;28;20125;-81
2023/09/12 10:34:04;;;;;;;0.10;0.10;;;;;;;30.70;93.90;96214.78;5100256;27;20238;-81
2023/09/12 10:36:51;;;;;;;0.00;0.00;;;;;;;32.65;85.91;96213.75;5101266;28;20158;-81
2023/09/12 10:39:38;;;;;;;0.10;0.10;;;;;;;34.36;76.08;96217.75;5103833;27;20055;-81
2023/09/12 10:42:27;;;;;;;0.10;0.10;;;;;;;35.87;60.33;96223.25;5103176;27;20045;-81
2023/09/12 10:45:13;;;;;;;0.10;0.10;;;;;;;37.30;51.13;96219.66;5094099;27;20054;-81
2023/09/12 10:47:59;;;;;;;0.10;0.10;;;;;;;35.79;61.17;96230.13;5106023;27;20316;-80
2023/09/12 10:50:46;;;;;;;0.00;0.00;;;;;;;37.65;47.55;96225.72;5109136;27;20544;-81
2023/09/12 10:53:35;;;;;;;0.10;0.10;;;;;;;38.61;41.84;96215.16;5090732;27;20055;-81
2023/09/12 10:56:21;;;;;;;0.10;0.10;;;;;;;39.61;38.12;96212.44;5107987;27;20054;-82
2023/09/12 10:59:07;;;;;;;0.10;0.10;;;;;;;40.31;36.59;96216.31;5105129;27;20058;-80
2023/09/12 11:01:53;;;;;;;0.10;0.10;;;;;;;40.82;34.47;96213.44;5109096;27;20055;-80
2023/09/12 11:04:39;;;;;;;0.10;0.10;;;;;;;40.12;34.71;96220.94;5108645;27;20136;-80
2023/09/12 11:07:40;;;;;;;0.10;0.10;;;;;;;40.15;32.77;96213.63;5105259;27;20047;-79
2023/09/12 11:10:28;;;;;;;0.20;0.20;;;;;;;40.40;36.79;96219.22;5110132;27;20876;-79
2023/09/12 11:13:18;;;;;;;0.05;0.05;;;;;;;40.32;35.82;96212.28;5106092;27;20074;-80
2023/09/12 11:16:11;;;;;;;;;;;;;;;40.68;32.05;96211.13;5108719;27;20805;-81
2023/09/12 11:19:15;;;;;;;0.00;0.00;;;;;;;39.14;36.80;96201.78;5103582;27;19927;-80
2023/09/12 11:22:20;;;;;;;0.00;0.00;;;;;;;38.63;39.57;96214.72;5097344;27;20138;-81
2023/09/12 11:25:20;;;;;;;0.10;0.10;;;;;;;38.92;37.04;96214.78;5107413;27;20101;-80
2023/09/12 11:28:05;;;;;;;0.10;0.10;;;;;;;42.30;31.73;96202.72;5106319;27;20038;-80
2023/09/12 11:30:59;;;;;;;0.10;0.10;;;;;;;42.96;28.58;96196.75;5081048;27;20392;-80
2023/09/12 11:33:46;;;;;;;0.00;0.00;;;;;;;45.00;26.52;96209.25;5107194;27;20079;-80
2023/09/12 11:36:39;;;;;;;0.10;0.10;;;;;;;45.49;25.30;96205.06;5109564;27;20127;-81
2023/09/12 11:39:28;;;;;;;0.10;0.10;;;;;;;45.74;25.14;96203.72;5104467;27;20130;-80
2023/09/12 11:42:14;;;;;;;0.00;0.00;;;;;;;41.28;32.31;96213.84;5104770;27;20077;-80
2023/09/12 11:45:00;;;;;;;0.10;0.10;;;;;;;41.69;31.78;96213.50;5109118;27;20615;-81
2023/09/12 11:47:47;;;;;;;0.00;0.00;;;;;;;38.20;40.78;96224.13;5091659;27;20455;-81
2023/09/12 11:50:36;;;;;;;0.10;0.10;;;;;;;38.28;40.29;96214.38;5107321;27;20494;-80
2023/09/12 11:53:25;;;;;;;0.10;0.10;;;;;;;39.72;36.67;96214.94;5106192;27;20174;-80
2023/09/12 11:56:11;;;;;;;0.10;0.10;;;;;;;42.14;30.33;96215.00;5109537;27;20051;-80
2023/09/12 11:59:00;;;;;;;0.10;0.10;;;;;;;43.57;28.73;96209.69;5123498;27;20074;-80
2023/09/12 12:01:46;;;;;;;0.00;0.00;;;;;;;42.04;29.15;96213.38;5128561;27;20070;-79
2023/09/12 12:04:32;;;;;;;0.00;0.00;;;;;;;38.14;39.60;96214.72;5107554;27;20510;-80
2023/09/12 12:07:18;;;;;;;0.08;0.00;;;;;;;34.99;58.94;96226.72;5102032;27;20051;-80
2023/09/12 12:10:04;;;;;;;0.00;0.00;;;;;;;33.55;70.28;96224.59;5087133;27;20099;-81
2023/09/12 12:12:53;;;;;;;0.00;0.00;;;;;;;32.43;78.80;96218.50;5103970;27;20528;-80
2023/09/12 12:15:39;;;;;;;0.00;0.00;;;;;;;31.69;83.29;96233.00;5094023;27;20581;-80
2023/09/12 12:18:25;;;;;;;0.00;0.00;;;;;;;30.78;86.21;96237.72;5103626;27;20038;-80
2023/09/12 12:21:11;;;;;;;0.00;0.00;;;;;;;30.30;88.51;96240.50;5080615;27;20047;-80
2023/09/12 12:24:02;;;;;;;0.00;0.00;;;;;;;30.04;90.55;96233.16;5105865;27;20048;-79
2023/09/12 12:26:48;;;;;;;0.00;0.00;;;;;;;30.12;90.42;96226.56;5107636;27;20566;-80
2023/09/12 12:29:36;;;;;;;0.00;0.00;;;;;;;29.72;90.13;96216.25;5103653;27;20035;-80
2023/09/12 12:32:22;;;;;;;0.00;0.00;;;;;;;29.59;89.90;96213.00;5087658;27;20810;-80
2023/09/12 12:35:17;;;;;;;0.00;0.00;;;;;;;29.55;89.50;96214.13;5106349;27;20074;-80
2023/09/12 12:38:04;;;;;;;0.03;0.03;;;;;;;29.73;88.67;96211.53;5105298;27;20035;-80
2023/09/12 12:40:49;;;;;;;0.00;0.00;;;;;;;29.96;86.94;96210.22;5108079;27;20472;-79
2023/09/12 12:43:40;;;;;;;0.10;0.10;;;;;;;30.44;82.77;96209.47;5104012;27;20525;-80
2023/09/12 12:46:27;;;;;;;0.05;0.05;;;;;;;32.08;74.67;96205.44;5093135;27;20070;-80
2023/09/12 12:49:15;;;;;;;0.10;0.10;;;;;;;35.54;53.34;96195.09;5091257;27;20047;-80
2023/09/12 12:52:02;;;;;;;0.00;0.00;;;;;;;35.59;51.90;96207.75;5108853;27;20078;-80
2023/09/12 12:54:49;;;;;;;0.00;0.00;;;;;;;36.17;46.54;96192.59;5107500;27;20061;-80
2023/09/12 12:57:39;;;;;;;0.00;0.00;;;;;;;34.90;55.64;96196.63;5102121;27;20565;-79
2023/09/12 13:00:26;;;;;;;0.00;0.00;;;;;;;33.41;66.95;96198.53;5091080;27;20050;-80